Time;durP1;ratioP1;P1;durP2;ratioP2;P2;SDS_P1;SDS_P2;PMS_P1;PMS_P2;Temp;Humidity;BMP_temperature;BMP_pressure;BME280_temperature;BME280_humidity;BME280_pressure;Samples;Min_cycle;Max_cycle;Signal;HPM_P1;HPM_P2
2022/03/27 00:00:40;;;;;;;9.10;5.82;;;;;;;;;;5052886;28;20025;-62
2022/03/27 00:03:07;;;;;;;11.38;6.00;;;;;;;;;;5053096;28;20032;-62
2022/03/27 00:05:33;;;;;;;9.20;5.85;;;;;;;;;;5052773;28;20383;-62
2022/03/27 00:08:00;;;;;;;9.60;5.45;;;;;;;;;;5052634;28;20055;-62
2022/03/27 00:10:26;;;;;;;11.80;5.97;;;;;;;;;;5052877;28;20025;-62
2022/03/27 00:12:52;;;;;;;9.63;5.45;;;;;;;;;;5052779;28;20349;-62
2022/03/27 00:15:18;;;;;;;11.75;6.07;;;;;;;;;;5052437;28;20020;-62
2022/03/27 00:17:44;;;;;;;12.70;6.13;;;;;;;;;;5052406;28;20551;-62
2022/03/27 00:20:12;;;;;;;13.52;6.50;;;;;;;;;;5052539;28;20384;-62
2022/03/27 00:22:38;;;;;;;11.23;6.25;;;;;;;;;;5052563;28;20467;-62
2022/03/27 00:25:05;;;;;;;12.88;5.63;;;;;;;;;;5033079;28;20100;-62
2022/03/27 00:27:32;;;;;;;9.57;5.30;;;;;;;;;;5032331;28;20056;-62
2022/03/27 00:29:58;;;;;;;11.63;5.97;;;;;;;;;;5032198;28;20033;-62
2022/03/27 00:32:24;;;;;;;10.88;5.85;;;;;;;;;;5032276;28;20075;-62
2022/03/27 00:34:51;;;;;;;10.95;5.60;;;;;;;;;;5032153;28;20097;-62
2022/03/27 00:37:17;;;;;;;11.23;5.82;;;;;;;;;;5032345;28;20052;-62
2022/03/27 00:39:43;;;;;;;11.43;5.82;;;;;;;;;;5032386;28;20026;-62
2022/03/27 00:42:09;;;;;;;11.35;5.93;;;;;;;;;;5032333;28;20104;-62
2022/03/27 00:44:38;;;;;;;10.57;5.30;;;;;;;;;;5032144;28;20469;-62
2022/03/27 00:47:05;;;;;;;10.15;6.15;;;;;;;;;;5032018;28;20038;-62
2022/03/27 00:49:31;;;;;;;9.45;5.65;;;;;;;;;;5032061;28;20096;-62
2022/03/27 00:51:57;;;;;;;9.05;5.55;;;;;;;;;;5031807;28;20026;-62
2022/03/27 00:54:23;;;;;;;9.48;5.78;;;;;;;;;;5031986;28;20026;-62
2022/03/27 00:56:49;;;;;;;9.45;5.40;;;;;;;;;;5032107;28;20026;-62
2022/03/27 00:59:17;;;;;;;12.63;5.97;;;;;;;;;;5031364;28;20477;-62
2022/03/27 01:01:44;;;;;;;10.70;5.97;;;;;;;;;;5031784;28;20025;-62
2022/03/27 01:04:10;;;;;;;10.95;5.80;;;;;;;;;;5032057;28;20412;-62
2022/03/27 01:06:39;;;;;;;11.80;5.55;;;;;;;;;;5031843;28;20080;-62
2022/03/27 01:11:51;;;;;;;14.23;5.60;;;;;;;;;;5051908;28;20044;-62
2022/03/27 01:14:33;;;;;;;10.93;5.93;;;;;;;;;;5051788;28;20486;-62
2022/03/27 01:17:01;;;;;;;9.23;5.40;;;;;;;;;;5051721;28;20025;-62
2022/03/27 01:19:27;;;;;;;11.02;5.95;;;;;;;;;;5051770;28;20052;-62
2022/03/27 01:21:54;;;;;;;10.43;6.22;;;;;;;;;;5051815;28;20039;-62
2022/03/27 01:24:21;;;;;;;14.18;6.45;;;;;;;;;;5051961;28;20423;-62
2022/03/27 01:26:47;;;;;;;11.02;5.88;;;;;;;;;;5051558;28;20025;-62
2022/03/27 01:29:13;;;;;;;11.95;6.07;;;;;;;;;;5051599;28;20595;-62
2022/03/27 01:31:40;;;;;;;12.20;6.45;;;;;;;;;;5051781;28;20029;-62
2022/03/27 01:34:06;;;;;;;13.90;6.43;;;;;;;;;;5051591;28;20035;-63
2022/03/27 01:36:34;;;;;;;9.90;6.13;;;;;;;;;;5051741;28;20759;-62
2022/03/27 01:39:01;;;;;;;10.10;5.97;;;;;;;;;;5051318;28;20014;-63
2022/03/27 01:41:27;;;;;;;9.98;5.68;;;;;;;;;;5067045;28;20070;-62
2022/03/27 01:43:54;;;;;;;12.20;6.50;;;;;;;;;;5051568;28;20046;-62
2022/03/27 01:46:20;;;;;;;11.43;5.93;;;;;;;;;;5051374;28;20047;-62
2022/03/27 01:48:47;;;;;;;10.90;5.88;;;;;;;;;;5051383;28;20112;-62
2022/03/27 01:51:13;;;;;;;11.75;6.13;;;;;;;;;;5051322;28;20025;-62
2022/03/27 01:53:39;;;;;;;9.73;5.80;;;;;;;;;;5066259;28;20028;-62
2022/03/27 01:56:07;;;;;;;12.02;6.68;;;;;;;;;;5066055;28;20123;-62
2022/03/27 01:58:33;;;;;;;10.48;5.97;;;;;;;;;;5050124;28;20469;-62
2022/03/27 02:00:59;;;;;;;17.17;5.97;;;;;;;;;;5050193;28;20105;-62
2022/03/27 02:03:28;;;;;;;19.35;6.80;;;;;;;;;;5049904;28;20056;-62
2022/03/27 02:05:55;;;;;;;11.32;6.50;;;;;;;;;;5049858;28;20025;-62
2022/03/27 02:08:21;;;;;;;12.95;6.00;;;;;;;;;;5050183;28;20033;-62
2022/03/27 02:10:47;;;;;;;10.60;6.28;;;;;;;;;;5050196;28;20468;-61
2022/03/27 02:13:14;;;;;;;13.32;6.13;;;;;;;;;;5053314;28;20503;-61
2022/03/27 02:15:41;;;;;;;13.60;6.72;;;;;;;;;;5054613;28;20044;-62
2022/03/27 02:18:09;;;;;;;11.68;6.25;;;;;;;;;;5054851;28;20511;-62
2022/03/27 02:20:35;;;;;;;18.88;6.70;;;;;;;;;;5054776;28;20028;-62
2022/03/27 02:23:02;;;;;;;15.13;6.85;;;;;;;;;;5054777;28;20089;-62
2022/03/27 02:25:28;;;;;;;16.60;6.57;;;;;;;;;;5052450;28;20025;-62
2022/03/27 02:27:54;;;;;;;11.00;5.78;;;;;;;;;;5054689;28;20037;-62
2022/03/27 02:30:20;;;;;;;12.50;6.53;;;;;;;;;;5069772;28;20483;-62
2022/03/27 02:32:47;;;;;;;31.25;6.88;;;;;;;;;;5054311;28;20045;-62
2022/03/27 02:35:14;;;;;;;10.23;5.25;;;;;;;;;;5054222;28;20105;-63
2022/03/27 02:37:40;;;;;;;13.82;6.45;;;;;;;;;;5054539;28;20021;-63
2022/03/27 02:40:06;;;;;;;11.43;6.00;;;;;;;;;;5054483;28;20024;-63
2022/03/27 02:42:33;;;;;;;16.23;6.22;;;;;;;;;;5054405;28;20104;-63
2022/03/27 02:44:59;;;;;;;10.43;6.05;;;;;;;;;;5054256;28;20635;-62
2022/03/27 02:47:25;;;;;;;8.73;5.43;;;;;;;;;;5054058;28;20044;-62
2022/03/27 02:49:51;;;;;;;12.77;6.20;;;;;;;;;;5054010;28;20059;-63
2022/03/27 02:52:17;;;;;;;8.23;5.22;;;;;;;;;;5054205;28;20028;-62
2022/03/27 02:54:44;;;;;;;12.02;5.25;;;;;;;;;;5053988;28;20013;-62
2022/03/27 02:57:10;;;;;;;13.63;6.45;;;;;;;;;;5054013;28;20068;-62
2022/03/27 02:59:37;;;;;;;11.10;5.88;;;;;;;;;;5054063;28;20632;-62
2022/03/27 03:02:04;;;;;;;10.20;6.07;;;;;;;;;;5054016;28;20025;-63
2022/03/27 03:04:34;;;;;;;9.07;5.43;;;;;;;;;;5053910;28;20025;-62
2022/03/27 03:07:01;;;;;;;13.63;5.55;;;;;;;;;;5053665;28;20041;-62
2022/03/27 03:09:27;;;;;;;10.93;5.88;;;;;;;;;;5053933;28;20357;-63
2022/03/27 03:11:53;;;;;;;12.25;6.75;;;;;;;;;;5053866;28;20032;-62
2022/03/27 03:14:19;;;;;;;13.55;5.93;;;;;;;;;;5053816;28;20536;-62
2022/03/27 03:16:49;;;;;;;11.68;6.32;;;;;;;;;;5053750;28;20036;-62
2022/03/27 03:19:15;;;;;;;9.80;5.45;;;;;;;;;;5053766;28;20017;-62
2022/03/27 03:21:41;;;;;;;11.02;6.35;;;;;;;;;;5053663;28;20115;-63
2022/03/27 03:24:09;;;;;;;11.80;6.47;;;;;;;;;;5052669;28;20021;-62
2022/03/27 03:26:35;;;;;;;13.45;6.20;;;;;;;;;;5053418;28;20103;-61
2022/03/27 03:29:01;;;;;;;12.85;6.15;;;;;;;;;;5053500;28;20025;-62
2022/03/27 03:31:28;;;;;;;11.20;6.07;;;;;;;;;;5053582;28;20021;-62
2022/03/27 03:33:54;;;;;;;11.63;6.35;;;;;;;;;;5053154;28;20052;-62
2022/03/27 03:36:20;;;;;;;11.38;5.70;;;;;;;;;;5053396;28;20021;-65
2022/03/27 03:38:46;;;;;;;11.25;5.82;;;;;;;;;;5053305;28;20028;-62
2022/03/27 03:41:12;;;;;;;12.25;6.68;;;;;;;;;;5053280;28;20025;-62
2022/03/27 03:43:38;;;;;;;12.02;6.70;;;;;;;;;;5068562;28;20112;-62
2022/03/27 03:46:05;;;;;;;13.45;7.03;;;;;;;;;;5053111;28;20479;-63
2022/03/27 03:48:31;;;;;;;11.45;6.22;;;;;;;;;;5052966;28;20024;-62
2022/03/27 03:50:57;;;;;;;11.25;6.80;;;;;;;;;;5053060;28;20032;-62
2022/03/27 03:53:24;;;;;;;12.45;6.00;;;;;;;;;;5052834;28;20032;-62
2022/03/27 03:55:50;;;;;;;18.85;6.32;;;;;;;;;;5052773;28;20025;-64
2022/03/27 03:58:16;;;;;;;12.93;6.80;;;;;;;;;;5052704;28;20017;-64
2022/03/27 04:00:42;;;;;;;12.23;5.75;;;;;;;;;;5052668;28;20021;-65
2022/03/27 04:03:11;;;;;;;9.75;5.70;;;;;;;;;;5052931;28;20067;-62
2022/03/27 04:05:37;;;;;;;9.43;5.57;;;;;;;;;;5052842;28;20029;-62
2022/03/27 04:08:03;;;;;;;10.18;6.10;;;;;;;;;;5052648;28;20087;-62
2022/03/27 04:10:30;;;;;;;13.90;6.32;;;;;;;;;;5052677;28;20472;-62
2022/03/27 04:12:56;;;;;;;11.75;5.95;;;;;;;;;;5052683;28;20450;-62
2022/03/27 04:15:22;;;;;;;10.43;6.18;;;;;;;;;;5052741;28;20021;-63
2022/03/27 04:17:50;;;;;;;10.68;6.28;;;;;;;;;;5052535;28;20043;-62
2022/03/27 04:20:17;;;;;;;11.30;6.40;;;;;;;;;;5052382;28;20055;-62
2022/03/27 04:22:43;;;;;;;11.32;6.25;;;;;;;;;;5052509;28;20022;-62
2022/03/27 04:25:13;;;;;;;11.90;6.05;;;;;;;;;;5037913;28;20029;-63
2022/03/27 04:27:39;;;;;;;12.68;5.88;;;;;;;;;;5032488;28;20087;-62
2022/03/27 04:30:10;;;;;;;13.70;5.88;;;;;;;;;;5032410;28;20013;-62
2022/03/27 04:32:36;;;;;;;9.27;5.65;;;;;;;;;;5032382;28;20024;-63
2022/03/27 04:35:03;;;;;;;10.90;6.40;;;;;;;;;;5032440;28;20096;-63
2022/03/27 04:37:29;;;;;;;11.32;5.75;;;;;;;;;;5032384;28;20030;-63
2022/03/27 04:40:02;;;;;;;12.30;6.28;;;;;;;;;;5032518;28;20028;-62
2022/03/27 04:42:28;;;;;;;10.75;5.85;;;;;;;;;;5032296;28;20029;-62
2022/03/27 04:44:54;;;;;;;9.88;5.75;;;;;;;;;;5032176;28;20025;-62
2022/03/27 04:47:20;;;;;;;11.05;5.65;;;;;;;;;;5032201;28;20036;-62
2022/03/27 04:49:46;;;;;;;11.30;5.93;;;;;;;;;;5032126;28;20096;-62
2022/03/27 04:52:12;;;;;;;11.25;5.80;;;;;;;;;;5032219;28;20083;-62
2022/03/27 04:54:39;;;;;;;9.40;5.85;;;;;;;;;;5032160;28;20022;-62
2022/03/27 04:57:05;;;;;;;11.38;6.32;;;;;;;;;;5032164;28;20108;-63
2022/03/27 04:59:32;;;;;;;11.13;5.80;;;;;;;;;;5031948;28;20036;-62
2022/03/27 05:01:58;;;;;;;13.98;6.28;;;;;;;;;;5032019;28;20516;-62
2022/03/27 05:04:25;;;;;;;15.50;7.20;;;;;;;;;;5031952;28;20109;-63
2022/03/27 05:06:51;;;;;;;11.25;6.10;;;;;;;;;;5031698;28;20103;-65
2022/03/27 05:09:18;;;;;;;11.48;5.93;;;;;;;;;;5031887;28;20039;-63
2022/03/27 05:11:45;;;;;;;11.13;6.50;;;;;;;;;;5031795;28;20492;-63
2022/03/27 05:14:11;;;;;;;10.43;5.72;;;;;;;;;;5031860;28;20029;-63
2022/03/27 05:16:37;;;;;;;10.82;5.85;;;;;;;;;;5031741;28;20026;-63
2022/03/27 05:19:04;;;;;;;12.18;6.40;;;;;;;;;;5031772;28;20068;-63
2022/03/27 05:21:31;;;;;;;11.80;5.95;;;;;;;;;;5031756;28;20026;-65
2022/03/27 05:23:57;;;;;;;12.10;6.53;;;;;;;;;;5031678;28;20638;-63
2022/03/27 05:26:23;;;;;;;10.43;5.80;;;;;;;;;;5031748;28;20029;-64
2022/03/27 05:28:49;;;;;;;12.55;6.05;;;;;;;;;;5032038;28;20499;-64
2022/03/27 05:31:15;;;;;;;10.38;5.82;;;;;;;;;;5032008;28;20045;-63
2022/03/27 05:33:41;;;;;;;13.80;6.03;;;;;;;;;;5031658;28;20026;-63
2022/03/27 05:36:08;;;;;;;9.35;5.80;;;;;;;;;;5031852;28;20025;-62
2022/03/27 05:38:34;;;;;;;13.85;6.32;;;;;;;;;;5046882;28;20018;-63
2022/03/27 05:41:01;;;;;;;9.60;5.70;;;;;;;;;;5046878;28;20026;-63
2022/03/27 05:43:27;;;;;;;12.23;6.53;;;;;;;;;;5031504;28;20388;-63
2022/03/27 05:45:53;;;;;;;10.90;5.93;;;;;;;;;;5032076;28;20021;-62
2022/03/27 05:48:20;;;;;;;9.20;5.43;;;;;;;;;;5035487;28;20113;-62
2022/03/27 05:50:46;;;;;;;12.88;5.93;;;;;;;;;;5035388;28;20021;-62
2022/03/27 05:53:12;;;;;;;12.10;5.78;;;;;;;;;;5035233;28;20084;-62
2022/03/27 05:55:38;;;;;;;9.90;5.30;;;;;;;;;;5035336;28;20028;-62
2022/03/27 05:58:04;;;;;;;12.18;5.72;;;;;;;;;;5050515;28;20025;-62
2022/03/27 06:00:31;;;;;;;10.60;5.75;;;;;;;;;;5035290;28;20029;-62
2022/03/27 06:02:57;;;;;;;9.70;6.13;;;;;;;;;;5035284;28;20503;-62
2022/03/27 06:05:23;;;;;;;14.10;6.13;;;;;;;;;;5035162;28;20033;-62
2022/03/27 06:07:50;;;;;;;11.25;6.18;;;;;;;;;;5050070;28;20046;-63
2022/03/27 06:10:19;;;;;;;13.30;6.55;;;;;;;;;;5035146;28;20021;-62
2022/03/27 06:12:45;;;;;;;11.65;6.32;;;;;;;;;;5034911;28;20018;-63
2022/03/27 06:15:12;;;;;;;11.60;6.43;;;;;;;;;;5034824;28;20017;-62
2022/03/27 06:17:42;;;;;;;8.80;5.30;;;;;;;;;;5034897;28;20020;-63
2022/03/27 06:20:09;;;;;;;9.60;5.70;;;;;;;;;;5034873;28;20063;-63
2022/03/27 06:22:35;;;;;;;12.90;5.68;;;;;;;;;;5034709;28;20075;-63
2022/03/27 06:25:02;;;;;;;11.77;6.35;;;;;;;;;;5042404;28;20021;-62
2022/03/27 06:27:28;;;;;;;13.85;5.70;;;;;;;;;;5054470;28;20044;-63
2022/03/27 06:29:54;;;;;;;8.70;4.78;;;;;;;;;;5054663;28;20100;-63
2022/03/27 06:32:20;;;;;;;8.85;4.85;;;;;;;;;;5054464;28;20024;-62
2022/03/27 06:34:46;;;;;;;10.82;5.65;;;;;;;;;;5054564;28;20017;-63
2022/03/27 06:37:12;;;;;;;8.40;5.13;;;;;;;;;;5054501;28;20024;-63
2022/03/27 06:39:38;;;;;;;13.98;6.20;;;;;;;;;;5054516;28;20422;-62
2022/03/27 06:42:04;;;;;;;9.57;5.15;;;;;;;;;;5054424;28;20534;-63
2022/03/27 06:44:31;;;;;;;11.27;4.95;;;;;;;;;;5054290;28;20100;-63
2022/03/27 06:46:57;;;;;;;6.70;4.07;;;;;;;;;;5054276;28;20025;-63
2022/03/27 06:49:23;;;;;;;12.90;4.40;;;;;;;;;;5054278;28;20673;-64
2022/03/27 06:51:49;;;;;;;11.65;5.68;;;;;;;;;;5054321;28;20013;-63
2022/03/27 06:54:15;;;;;;;8.30;4.38;;;;;;;;;;5054027;28;20017;-62
2022/03/27 06:56:42;;;;;;;9.52;4.50;;;;;;;;;;5054187;28;20104;-63
2022/03/27 06:59:09;;;;;;;22.10;5.18;;;;;;;;;;5068164;28;20468;-63
2022/03/27 07:04:20;;;;;;;9.52;4.55;;;;;;;;;;5053737;28;20134;-62
2022/03/27 07:06:46;;;;;;;9.60;4.78;;;;;;;;;;5053086;28;20048;-62
2022/03/27 07:09:13;;;;;;;10.02;4.03;;;;;;;;;;5053584;28;20029;-63
2022/03/27 07:11:39;;;;;;;9.13;3.90;;;;;;;;;;5053405;28;20098;-63
2022/03/27 07:14:05;;;;;;;8.35;3.70;;;;;;;;;;5053943;28;20459;-63
2022/03/27 07:16:31;;;;;;;11.63;3.80;;;;;;;;;;5053619;28;20112;-63
2022/03/27 07:18:58;;;;;;;18.58;4.20;;;;;;;;;;5053550;28;20029;-63
2022/03/27 07:21:24;;;;;;;8.10;4.15;;;;;;;;;;5053495;28;20086;-64
2022/03/27 07:23:50;;;;;;;9.85;3.42;;;;;;;;;;5050505;28;20023;-63
2022/03/27 07:26:17;;;;;;;8.27;3.70;;;;;;;;;;5050235;28;20116;-62
2022/03/27 07:28:43;;;;;;;7.05;3.70;;;;;;;;;;5049408;28;20063;-62
2022/03/27 07:31:11;;;;;;;15.10;4.03;;;;;;;;;;5052470;28;20019;-64
2022/03/27 07:33:38;;;;;;;6.03;3.35;;;;;;;;;;5052984;28;20044;-63
2022/03/27 07:36:04;;;;;;;9.50;3.03;;;;;;;;;;5047613;28;20027;-63
2022/03/27 07:38:31;;;;;;;7.13;3.00;;;;;;;;;;5052844;28;20042;-63
2022/03/27 07:40:59;;;;;;;9.02;2.95;;;;;;;;;;5051800;28;20056;-63
2022/03/27 07:43:25;;;;;;;8.88;3.47;;;;;;;;;;5053184;28;20017;-62
2022/03/27 07:45:51;;;;;;;5.97;3.13;;;;;;;;;;5053236;28;20017;-63
2022/03/27 07:48:17;;;;;;;6.47;3.28;;;;;;;;;;5053116;28;20074;-62
2022/03/27 07:50:46;;;;;;;8.52;3.55;;;;;;;;;;5053101;28;20028;-62
2022/03/27 07:53:12;;;;;;;11.93;3.13;;;;;;;;;;5052755;28;20025;-63
2022/03/27 07:55:38;;;;;;;6.97;3.05;;;;;;;;;;5042870;28;20034;-62
2022/03/27 07:58:04;;;;;;;5.75;3.35;;;;;;;;;;5067845;28;20037;-63
2022/03/27 08:00:31;;;;;;;5.35;2.88;;;;;;;;;;5044596;28;20096;-63
2022/03/27 08:02:57;;;;;;;4.38;2.50;;;;;;;;;;5032668;28;20029;-63
2022/03/27 08:05:24;;;;;;;8.40;2.92;;;;;;;;;;5032656;28;20044;-63
2022/03/27 08:07:50;;;;;;;6.38;3.38;;;;;;;;;;5032071;28;20057;-62
2022/03/27 08:10:17;;;;;;;6.55;3.22;;;;;;;;;;5032358;28;20049;-63
2022/03/27 08:12:43;;;;;;;8.55;3.45;;;;;;;;;;5040396;28;20028;-62
2022/03/27 08:15:09;;;;;;;7.50;3.20;;;;;;;;;;5052267;28;20108;-63
2022/03/27 08:17:36;;;;;;;5.97;2.85;;;;;;;;;;5052041;28;20094;-62
2022/03/27 08:20:03;;;;;;;6.97;3.05;;;;;;;;;;5052101;28;20112;-62
2022/03/27 08:22:29;;;;;;;7.43;3.38;;;;;;;;;;5052113;28;20028;-63
2022/03/27 08:24:55;;;;;;;6.35;2.90;;;;;;;;;;5052033;28;20063;-63
2022/03/27 08:27:21;;;;;;;5.32;2.80;;;;;;;;;;5051549;28;20147;-62
2022/03/27 08:29:48;;;;;;;6.75;3.20;;;;;;;;;;5052159;28;20014;-63
2022/03/27 08:32:15;;;;;;;9.93;2.63;;;;;;;;;;5052194;28;20017;-63
2022/03/27 08:34:43;;;;;;;9.13;2.90;;;;;;;;;;5051608;28;20033;-63
2022/03/27 08:37:11;;;;;;;8.82;3.38;;;;;;;;;;5052127;28;20483;-63
2022/03/27 08:39:38;;;;;;;7.63;2.97;;;;;;;;;;5050757;28;20025;-63
2022/03/27 08:42:04;;;;;;;8.60;3.30;;;;;;;;;;5051851;28;20154;-63
2022/03/27 08:44:33;;;;;;;7.97;2.80;;;;;;;;;;5050621;28;20074;-63
2022/03/27 08:46:59;;;;;;;6.75;2.85;;;;;;;;;;5051462;28;20373;-63
2022/03/27 08:49:43;;;;;;;6.15;2.83;;;;;;;;;;5050688;28;20023;-63
2022/03/27 08:52:29;;;;;;;7.07;2.95;;;;;;;;;;5051710;28;20051;-63
2022/03/27 08:55:00;;;;;;;4.80;2.60;;;;;;;;;;5051921;28;20039;-63
2022/03/27 08:57:38;;;;;;;6.32;3.03;;;;;;;;;;5051756;28;20064;-63
2022/03/27 09:00:05;;;;;;;5.55;3.10;;;;;;;;;;5051341;28;20025;-62
2022/03/27 09:02:31;;;;;;;5.72;2.92;;;;;;;;;;5051384;28;20025;-62
2022/03/27 09:04:59;;;;;;;5.28;2.78;;;;;;;;;;5051678;28;20416;-63
2022/03/27 09:07:34;;;;;;;9.20;2.83;;;;;;;;;;5051562;28;20363;-63
2022/03/27 09:10:05;;;;;;;5.40;2.40;;;;;;;;;;5051582;28;20076;-63
2022/03/27 09:12:33;;;;;;;8.48;2.90;;;;;;;;;;5051384;28;20105;-62
2022/03/27 09:14:59;;;;;;;8.38;3.15;;;;;;;;;;5051606;28;20024;-62
2022/03/27 09:17:26;;;;;;;6.97;3.08;;;;;;;;;;5051359;28;20435;-63
2022/03/27 09:19:52;;;;;;;5.72;2.58;;;;;;;;;;5051382;28;20044;-62
2022/03/27 09:22:22;;;;;;;5.85;3.00;;;;;;;;;;5054524;28;20222;-63
2022/03/27 09:24:49;;;;;;;5.60;2.70;;;;;;;;;;5055540;28;20017;-63
2022/03/27 09:27:15;;;;;;;4.82;2.80;;;;;;;;;;5055820;28;20036;-63
2022/03/27 09:29:55;;;;;;;5.63;2.88;;;;;;;;;;5055518;28;20021;-63
2022/03/27 09:32:30;;;;;;;5.95;2.70;;;;;;;;;;5055344;28;20021;-63
2022/03/27 09:35:01;;;;;;;7.72;2.80;;;;;;;;;;5055434;28;20025;-63
2022/03/27 09:37:31;;;;;;;5.63;2.72;;;;;;;;;;5055470;28;20040;-63
2022/03/27 09:39:58;;;;;;;7.28;3.20;;;;;;;;;;5055338;28;20048;-63
2022/03/27 09:42:24;;;;;;;6.57;2.75;;;;;;;;;;5055288;28;20025;-63
2022/03/27 09:45:08;;;;;;;7.18;3.03;;;;;;;;;;5054963;28;20012;-63
2022/03/27 09:47:35;;;;;;;5.15;2.75;;;;;;;;;;5054851;28;20100;-63
2022/03/27 09:50:01;;;;;;;14.43;3.53;;;;;;;;;;5054726;28;20021;-63
2022/03/27 09:52:27;;;;;;;6.55;3.17;;;;;;;;;;5055159;28;20187;-62
2022/03/27 09:54:53;;;;;;;6.57;3.05;;;;;;;;;;5053763;28;20044;-63
2022/03/27 09:57:19;;;;;;;6.93;2.97;;;;;;;;;;5035155;28;20108;-64
2022/03/27 09:59:46;;;;;;;9.65;3.55;;;;;;;;;;5034807;28;20018;-64
2022/03/27 10:02:20;;;;;;;7.53;3.15;;;;;;;;;;5034994;28;20013;-64
2022/03/27 10:04:52;;;;;;;7.38;3.63;;;;;;;;;;5034785;28;20057;-64
2022/03/27 10:07:19;;;;;;;6.57;3.10;;;;;;;;;;5034160;28;20586;-62
2022/03/27 10:09:45;;;;;;;6.97;3.25;;;;;;;;;;5034688;28;20026;-65
2022/03/27 10:12:13;;;;;;;9.30;3.70;;;;;;;;;;5034808;28;20105;-65
2022/03/27 10:14:40;;;;;;;8.05;3.63;;;;;;;;;;5050085;28;20025;-66
2022/03/27 10:17:07;;;;;;;6.13;3.00;;;;;;;;;;5034715;28;20036;-63
2022/03/27 10:19:44;;;;;;;7.95;3.58;;;;;;;;;;5044214;28;20017;-62
2022/03/27 10:22:12;;;;;;;7.18;2.88;;;;;;;;;;5054458;28;20506;-63
2022/03/27 10:24:39;;;;;;;6.25;3.50;;;;;;;;;;5054566;28;20033;-63
2022/03/27 10:27:05;;;;;;;6.20;3.20;;;;;;;;;;5069697;28;20064;-64
2022/03/27 10:29:32;;;;;;;5.30;3.00;;;;;;;;;;5046528;28;20025;-63
2022/03/27 10:32:04;;;;;;;10.07;3.72;;;;;;;;;;5034093;28;20026;-63
2022/03/27 10:34:33;;;;;;;6.70;2.92;;;;;;;;;;5034050;28;20748;-62
2022/03/27 10:37:22;;;;;;;9.07;3.45;;;;;;;;;;5034247;28;20091;-63
2022/03/27 10:39:58;;;;;;;7.50;3.45;;;;;;;;;;5014824;28;20029;-63
2022/03/27 10:42:33;;;;;;;5.63;3.25;;;;;;;;;;5034359;28;20051;-63
2022/03/27 10:45:02;;;;;;;8.30;3.60;;;;;;;;;;5038363;28;20033;-62
2022/03/27 10:47:29;;;;;;;8.25;3.53;;;;;;;;;;5059664;28;20044;-63
2022/03/27 10:50:02;;;;;;;5.75;3.00;;;;;;;;;;5057811;28;20040;-63
2022/03/27 10:52:36;;;;;;;9.57;3.45;;;;;;;;;;5053833;28;20029;-62
2022/03/27 10:55:15;;;;;;;8.73;3.60;;;;;;;;;;5045053;28;20147;-64
2022/03/27 10:57:46;;;;;;;7.78;3.15;;;;;;;;;;5053031;28;20024;-63
2022/03/27 11:00:13;;;;;;;24.00;3.85;;;;;;;;;;5041121;28;20029;-63
2022/03/27 11:02:46;;;;;;;6.93;3.88;;;;;;;;;;5033478;28;20021;-62
2022/03/27 11:05:35;;;;;;;7.35;3.75;;;;;;;;;;5033264;28;20018;-63
2022/03/27 11:08:22;;;;;;;8.75;3.63;;;;;;;;;;5022816;28;20057;-62
2022/03/27 11:10:50;;;;;;;6.88;3.42;;;;;;;;;;5035331;28;20041;-63
2022/03/27 11:13:28;;;;;;;17.70;3.67;;;;;;;;;;5052821;28;20048;-62
2022/03/27 11:16:13;;;;;;;13.15;4.18;;;;;;;;;;5053199;28;20112;-63
2022/03/27 11:18:41;;;;;;;17.23;4.22;;;;;;;;;;5052328;28;20029;-63
2022/03/27 11:21:07;;;;;;;16.65;3.78;;;;;;;;;;5052194;28;20025;-63
2022/03/27 11:23:36;;;;;;;13.45;4.00;;;;;;;;;;5052403;28;20037;-62
2022/03/27 11:26:04;;;;;;;19.92;4.80;;;;;;;;;;5051463;28;20029;-64
2022/03/27 11:28:48;;;;;;;15.65;4.60;;;;;;;;;;5052787;28;20051;-63
2022/03/27 11:31:16;;;;;;;10.93;4.18;;;;;;;;;;5053485;28;20514;-62
2022/03/27 11:33:45;;;;;;;14.23;3.83;;;;;;;;;;5053521;28;20021;-63
2022/03/27 11:36:11;;;;;;;13.50;3.92;;;;;;;;;;5053580;28;20021;-63
2022/03/27 11:38:50;;;;;;;8.60;3.13;;;;;;;;;;5052243;28;20103;-62
2022/03/27 11:41:26;;;;;;;12.15;3.00;;;;;;;;;;5053280;28;20549;-63
2022/03/27 11:43:53;;;;;;;8.57;3.17;;;;;;;;;;5052632;28;20504;-63
2022/03/27 11:46:22;;;;;;;22.73;4.07;;;;;;;;;;5051967;28;20549;-63
2022/03/27 11:48:58;;;;;;;15.30;4.78;;;;;;;;;;5052376;28;20033;-63
2022/03/27 11:51:24;;;;;;;15.05;4.05;;;;;;;;;;5052405;28;20032;-62
2022/03/27 11:53:52;;;;;;;14.20;3.13;;;;;;;;;;5052098;28;20064;-63
2022/03/27 11:56:18;;;;;;;14.27;3.40;;;;;;;;;;5052038;28;20021;-63
2022/03/27 11:58:44;;;;;;;14.10;3.30;;;;;;;;;;5052880;28;20048;-62
2022/03/27 12:01:10;;;;;;;20.80;4.35;;;;;;;;;;5052961;28;20043;-63
2022/03/27 12:03:37;;;;;;;7.93;3.17;;;;;;;;;;5052814;28;20021;-62
2022/03/27 12:06:04;;;;;;;12.55;3.40;;;;;;;;;;5051734;28;20052;-63
2022/03/27 12:08:49;;;;;;;13.80;4.20;;;;;;;;;;5051108;28;20094;-63
2022/03/27 12:11:20;;;;;;;16.77;5.25;;;;;;;;;;5051528;28;20106;-63
2022/03/27 12:13:46;;;;;;;12.70;3.60;;;;;;;;;;5050287;28;20686;-63
2022/03/27 12:16:23;;;;;;;11.57;4.15;;;;;;;;;;5052112;28;20452;-62
2022/03/27 12:18:50;;;;;;;11.00;4.03;;;;;;;;;;5052108;28;20021;-63
2022/03/27 12:21:20;;;;;;;10.73;3.50;;;;;;;;;;5052385;28;20434;-63
2022/03/27 12:23:55;;;;;;;12.43;3.30;;;;;;;;;;5052499;28;20017;-63
2022/03/27 12:32:02;;;;;;;8.35;2.97;;;;;;;;;;5052636;28;20067;-63
2022/03/27 12:34:28;;;;;;;13.40;3.45;;;;;;;;;;5052381;28;20028;-63
2022/03/27 12:37:10;;;;;;;7.05;3.20;;;;;;;;;;5052024;28;20088;-62
2022/03/27 12:39:40;;;;;;;7.30;3.13;;;;;;;;;;5052261;28;20005;-62
2022/03/27 12:42:07;;;;;;;9.98;2.72;;;;;;;;;;5052085;28;20025;-63
2022/03/27 12:44:49;;;;;;;6.90;3.20;;;;;;;;;;5052005;28;20013;-63
2022/03/27 12:47:15;;;;;;;13.82;3.30;;;;;;;;;;5052173;28;20056;-63
2022/03/27 12:49:50;;;;;;;9.10;2.83;;;;;;;;;;5051985;28;20025;-63
2022/03/27 12:52:17;;;;;;;6.82;2.80;;;;;;;;;;5052056;28;20070;-63
2022/03/27 12:54:55;;;;;;;7.03;2.88;;;;;;;;;;5051866;28;20021;-63
2022/03/27 12:57:21;;;;;;;6.63;3.13;;;;;;;;;;5051497;28;20306;-63
2022/03/27 12:59:47;;;;;;;7.28;2.80;;;;;;;;;;5042513;28;20029;-63
2022/03/27 13:02:26;;;;;;;6.78;2.72;;;;;;;;;;5031607;28;20029;-63
2022/03/27 13:05:00;;;;;;;8.95;3.17;;;;;;;;;;5031662;28;20013;-63
2022/03/27 13:07:45;;;;;;;5.35;2.75;;;;;;;;;;5031631;28;20041;-63
2022/03/27 13:10:11;;;;;;;4.63;2.95;;;;;;;;;;5031996;28;20025;-63
2022/03/27 13:12:37;;;;;;;4.78;2.50;;;;;;;;;;5031861;28;20025;-63
2022/03/27 13:15:04;;;;;;;7.75;3.63;;;;;;;;;;5032043;28;20060;-63
2022/03/27 13:17:30;;;;;;;5.25;2.50;;;;;;;;;;5031899;28;20053;-63
2022/03/27 13:19:56;;;;;;;8.48;2.85;;;;;;;;;;5031823;28;20018;-63
2022/03/27 13:22:22;;;;;;;5.38;2.70;;;;;;;;;;5031667;28;20362;-63
2022/03/27 13:24:53;;;;;;;5.63;2.80;;;;;;;;;;5031810;28;20469;-63
2022/03/27 13:27:19;;;;;;;8.52;3.75;;;;;;;;;;5031685;28;20250;-63
2022/03/27 13:29:45;;;;;;;7.40;3.13;;;;;;;;;;5044515;28;20032;-63
2022/03/27 13:32:11;;;;;;;5.57;2.85;;;;;;;;;;5050348;28;20029;-63
2022/03/27 13:34:37;;;;;;;6.40;2.67;;;;;;;;;;5050691;28;20031;-63
2022/03/27 13:37:04;;;;;;;7.68;2.65;;;;;;;;;;5050313;28;20032;-63
2022/03/27 13:39:30;;;;;;;6.53;2.75;;;;;;;;;;5049978;28;20021;-63
2022/03/27 13:44:41;;;;;;;6.05;2.75;;;;;;;;;;5050341;28;20388;-63
2022/03/27 13:47:08;;;;;;;7.20;3.00;;;;;;;;;;5051450;28;20072;-63
2022/03/27 13:49:34;;;;;;;6.40;2.60;;;;;;;;;;5050816;28;20035;-63
2022/03/27 13:52:01;;;;;;;7.05;3.03;;;;;;;;;;5050250;28;20111;-63
2022/03/27 13:54:27;;;;;;;5.60;2.90;;;;;;;;;;5050206;28;20021;-63
2022/03/27 13:56:53;;;;;;;6.93;3.30;;;;;;;;;;5050185;28;20618;-63
2022/03/27 13:59:20;;;;;;;8.07;2.92;;;;;;;;;;5049958;28;20029;-62
2022/03/27 14:01:47;;;;;;;5.43;2.85;;;;;;;;;;5049955;28;20013;-63
2022/03/27 14:04:14;;;;;;;5.63;3.03;;;;;;;;;;5050328;28;20021;-62
2022/03/27 14:06:42;;;;;;;6.65;3.10;;;;;;;;;;5050576;28;20053;-63
2022/03/27 14:09:08;;;;;;;5.47;3.08;;;;;;;;;;5054661;28;20293;-63
2022/03/27 14:11:35;;;;;;;6.43;3.00;;;;;;;;;;5055210;28;20076;-62
2022/03/27 14:14:01;;;;;;;5.60;2.72;;;;;;;;;;5054860;28;20028;-62
2022/03/27 14:16:31;;;;;;;6.78;2.95;;;;;;;;;;5054939;28;20071;-62
2022/03/27 14:18:57;;;;;;;6.43;2.65;;;;;;;;;;5054635;28;20036;-63
2022/03/27 14:21:23;;;;;;;5.43;2.75;;;;;;;;;;5054987;28;20024;-63
2022/03/27 14:23:49;;;;;;;9.52;3.58;;;;;;;;;;5054877;28;20468;-63
2022/03/27 14:26:15;;;;;;;7.05;3.08;;;;;;;;;;5054614;28;20035;-63
2022/03/27 14:28:42;;;;;;;6.88;2.97;;;;;;;;;;5054525;28;20033;-63
2022/03/27 14:31:08;;;;;;;9.15;3.17;;;;;;;;;;5054813;28;20033;-63
2022/03/27 14:33:34;;;;;;;7.95;3.20;;;;;;;;;;5053302;28;20115;-63
2022/03/27 14:36:00;;;;;;;9.82;3.28;;;;;;;;;;5054765;28;20692;-62
2022/03/27 14:38:27;;;;;;;9.20;3.95;;;;;;;;;;5048729;28;20032;-63
2022/03/27 14:40:55;;;;;;;9.65;3.50;;;;;;;;;;5035158;28;20033;-62
2022/03/27 14:43:22;;;;;;;5.25;3.00;;;;;;;;;;5039817;28;20010;-62
2022/03/27 14:45:50;;;;;;;9.00;3.60;;;;;;;;;;5054481;28;20039;-62
2022/03/27 14:48:18;;;;;;;6.45;3.20;;;;;;;;;;5054009;28;20033;-63
2022/03/27 14:50:45;;;;;;;6.07;3.22;;;;;;;;;;5049371;28;20036;-63
2022/03/27 14:53:11;;;;;;;6.32;3.13;;;;;;;;;;5034038;28;20480;-64